Time;durP1;ratioP1;P1;durP2;ratioP2;P2;SDS_P1;SDS_P2;PMS_P1;PMS_P2;Temp;Humidity;BMP_temperature;BMP_pressure;BME280_temperature;BME280_humidity;BME280_pressure;Samples;Min_cycle;Max_cycle;Signal;HPM_P1;HPM_P2
2024/01/17 00:00:26;;;;;;;8.93;4.47;;;;;;;0.22;100.00;98690.09;4894317;29;20065;-93
2024/01/17 00:02:54;;;;;;;8.35;4.57;;;;;;;0.29;100.00;98690.44;4888743;29;20051;-93
2024/01/17 00:05:20;;;;;;;8.10;4.38;;;;;;;0.24;100.00;98675.22;4902869;29;20059;-93
2024/01/17 00:07:46;;;;;;;10.05;5.75;;;;;;;0.26;100.00;98685.50;4890104;29;20150;-94
2024/01/17 00:10:16;;;;;;;10.23;5.43;;;;;;;0.23;100.00;98676.19;4888493;29;20067;-93
2024/01/17 00:12:42;;;;;;;10.48;5.03;;;;;;;0.23;100.00;98672.75;4889396;29;20532;-93
2024/01/17 00:15:08;;;;;;;9.90;5.07;;;;;;;0.22;100.00;98671.09;4898336;29;20130;-93
2024/01/17 00:17:37;;;;;;;13.20;5.78;;;;;;;0.25;100.00;98673.44;4897580;29;20059;-93
2024/01/17 00:20:07;;;;;;;11.68;5.15;;;;;;;0.27;100.00;98671.53;4884385;29;20051;-94
2024/01/17 00:22:33;;;;;;;12.65;4.90;;;;;;;0.21;100.00;98674.63;4904776;29;20429;-93
2024/01/17 00:24:59;;;;;;;8.40;4.82;;;;;;;0.13;100.00;98672.63;4883758;29;20028;-93
2024/01/17 00:27:26;;;;;;;9.23;5.28;;;;;;;0.14;100.00;98679.50;4897520;29;20077;-92
2024/01/17 00:29:57;;;;;;;11.65;5.72;;;;;;;0.09;100.00;98669.47;4902546;29;20035;-93
2024/01/17 00:32:26;;;;;;;7.80;5.20;;;;;;;0.22;100.00;98661.50;4887282;29;20036;-93
2024/01/17 00:34:57;;;;;;;10.68;5.50;;;;;;;0.24;100.00;98672.63;4898777;29;20036;-92
2024/01/17 00:37:23;;;;;;;7.53;4.50;;;;;;;0.22;100.00;98671.91;4886874;29;20044;-92
2024/01/17 00:39:52;;;;;;;10.82;5.70;;;;;;;0.24;100.00;98666.59;4899187;29;20504;-96
2024/01/17 00:42:34;;;;;;;11.02;4.80;;;;;;;0.28;100.00;98656.78;4910969;29;20039;-96
2024/01/17 00:45:03;;;;;;;15.60;8.52;;;;;;;0.31;100.00;98659.97;4908099;29;20070;-93
2024/01/17 00:47:30;;;;;;;13.65;5.90;;;;;;;0.39;100.00;98654.16;4883621;29;20060;-94
2024/01/17 00:50:30;;;;;;;12.38;5.55;;;;;;;0.45;100.00;98650.22;4909366;29;20040;-96
2024/01/17 00:53:10;;;;;;;10.60;4.90;;;;;;;0.41;100.00;98649.66;4939388;29;20134;-97
2024/01/17 00:56:09;;;;;;;11.88;5.18;;;;;;;0.48;100.00;98643.00;4899709;29;20043;-93
2024/01/17 00:58:34;;;;;;;9.70;4.65;;;;;;;0.48;100.00;98631.78;4881248;29;20504;-93
2024/01/17 01:01:00;;;;;;;11.93;5.30;;;;;;;0.56;100.00;98639.78;4893201;29;20046;-92
2024/01/17 01:03:26;;;;;;;10.65;5.25;;;;;;;0.60;100.00;98646.41;4884104;29;20043;-93
2024/01/17 01:06:21;;;;;;;11.70;5.40;;;;;;;0.62;100.00;98633.28;4931729;29;20039;-96
2024/01/17 01:08:56;;;;;;;8.55;5.20;;;;;;;0.66;100.00;98628.63;4900492;29;20043;-96
2024/01/17 01:12:11;;;;;;;9.05;4.72;;;;;;;0.72;100.00;98621.16;4935531;29;20045;-96
2024/01/17 01:14:42;;;;;;;7.30;4.63;;;;;;;0.67;100.00;98617.31;4925487;29;20032;-93
2024/01/17 01:17:08;;;;;;;12.40;5.30;;;;;;;0.68;100.00;98619.78;4888668;29;20086;-92
2024/01/17 01:19:34;;;;;;;9.60;5.15;;;;;;;0.66;100.00;98615.63;4889790;29;20078;-93
2024/01/17 01:22:02;;;;;;;12.13;5.57;;;;;;;0.64;100.00;98615.75;4901413;29;20040;-92
2024/01/17 01:24:30;;;;;;;9.63;5.20;;;;;;;0.59;100.00;98616.13;4885939;29;20036;-92
2024/01/17 01:26:57;;;;;;;10.57;5.68;;;;;;;0.53;100.00;98619.25;4894467;29;20099;-93
2024/01/17 01:29:25;;;;;;;7.82;5.05;;;;;;;0.52;100.00;98608.97;4899110;29;20616;-92
2024/01/17 01:31:51;;;;;;;11.68;5.55;;;;;;;0.49;100.00;98603.06;4884414;29;20051;-93
2024/01/17 01:34:24;;;;;;;10.45;4.97;;;;;;;0.57;100.00;98618.06;4891160;29;20142;-93
2024/01/17 01:36:50;;;;;;;11.07;5.30;;;;;;;0.55;100.00;98600.91;4918960;29;20428;-93
2024/01/17 01:39:16;;;;;;;11.93;5.25;;;;;;;0.60;100.00;98609.16;4901796;29;20043;-93
2024/01/17 01:41:45;;;;;;;10.90;4.72;;;;;;;0.64;100.00;98609.75;4891013;29;20118;-93
2024/01/17 01:44:22;;;;;;;9.88;5.85;;;;;;;0.67;100.00;98604.28;4888919;29;20043;-96
2024/01/17 01:46:51;;;;;;;9.13;5.28;;;;;;;0.63;100.00;98601.13;4890083;29;20054;-96
2024/01/17 01:49:28;;;;;;;7.65;5.07;;;;;;;0.61;100.00;98603.00;4896418;29;20028;-93
2024/01/17 01:51:54;;;;;;;11.65;5.82;;;;;;;0.48;100.00;98593.63;4900975;29;20047;-92
2024/01/17 01:54:40;;;;;;;14.15;5.85;;;;;;;0.44;100.00;98589.63;4913394;29;20055;-96
2024/01/17 01:57:12;;;;;;;13.15;7.70;;;;;;;0.34;100.00;98589.53;4901270;29;20441;-96
2024/01/17 02:00:04;;;;;;;17.67;8.60;;;;;;;0.39;100.00;98583.13;4901139;29;20047;-92
2024/01/17 02:02:39;;;;;;;16.77;8.23;;;;;;;0.41;100.00;98586.44;4896114;29;20028;-92
2024/01/17 02:05:05;;;;;;;16.73;8.80;;;;;;;0.43;100.00;98587.16;4894074;29;20036;-96
2024/01/17 02:07:34;;;;;;;14.85;8.40;;;;;;;0.48;100.00;98585.81;4917204;29;20061;-96
2024/01/17 02:10:03;;;;;;;13.13;7.43;;;;;;;0.50;100.00;98585.69;4897867;29;20122;-92
2024/01/17 02:12:30;;;;;;;12.77;7.82;;;;;;;0.52;100.00;98576.00;4916280;29;20095;-93
2024/01/17 02:15:00;;;;;;;13.18;7.13;;;;;;;0.48;100.00;98570.22;4897978;29;20008;-96
2024/01/17 02:17:47;;;;;;;16.27;7.05;;;;;;;0.49;100.00;98569.25;4935213;29;20066;-96
2024/01/17 02:20:23;;;;;;;13.73;7.28;;;;;;;0.45;100.00;98562.69;4927048;29;20043;-93
2024/01/17 02:22:49;;;;;;;13.80;6.57;;;;;;;0.52;100.00;98575.16;4907300;29;20032;-93
2024/01/17 02:25:14;;;;;;;11.07;6.72;;;;;;;0.46;100.00;98550.50;4887527;29;20043;-93
2024/01/17 02:27:40;;;;;;;13.48;7.15;;;;;;;0.48;100.00;98556.38;4913257;29;20473;-94
2024/01/17 02:30:09;;;;;;;13.82;8.13;;;;;;;0.44;100.00;98552.41;4904476;29;20403;-96
2024/01/17 02:36:17;;;;;;;14.95;7.35;;;;;;;0.03;100.00;98555.66;4916459;29;20095;-93
2024/01/17 02:38:43;;;;;;;14.88;6.80;;;;;;;-0.06;100.00;98554.59;4888531;29;20056;-93
2024/01/17 02:41:14;;;;;;;15.02;7.93;;;;;;;-0.14;100.00;98546.59;4904416;29;20050;-97
2024/01/17 02:43:51;;;;;;;14.90;7.90;;;;;;;-0.17;100.00;98534.69;4922966;29;20048;-96
2024/01/17 02:46:17;;;;;;;13.15;6.85;;;;;;;-0.22;100.00;98531.63;4890021;29;20040;-93
2024/01/17 02:48:43;;;;;;;15.23;7.82;;;;;;;-0.11;100.00;98540.34;4888906;29;20035;-93
2024/01/17 02:51:09;;;;;;;14.52;7.57;;;;;;;-0.11;100.00;98533.38;4905147;29;20130;-93
2024/01/17 02:53:38;;;;;;;14.40;7.43;;;;;;;-0.11;100.00;98535.16;4888603;29;20616;-95
2024/01/17 02:56:14;;;;;;;12.88;6.57;;;;;;;-0.13;100.00;98530.91;4917974;29;20027;-96
2024/01/17 02:58:43;;;;;;;13.48;8.07;;;;;;;-0.19;100.00;98528.78;4922611;23;20056;-93
2024/01/17 03:01:09;;;;;;;11.40;7.03;;;;;;;-0.23;100.00;98523.97;4908509;29;20040;-92
2024/01/17 03:03:35;;;;;;;14.38;7.13;;;;;;;-0.32;100.00;98520.34;4900400;29;20040;-89
2024/01/17 03:06:01;;;;;;;13.82;6.25;;;;;;;-0.31;100.00;98527.19;4899281;29;20140;-90
2024/01/17 03:08:28;;;;;;;16.63;6.35;;;;;;;-0.44;100.00;98516.94;4904643;29;20135;-92
2024/01/17 03:10:54;;;;;;;13.23;6.75;;;;;;;-0.45;100.00;98518.72;4893539;29;20044;-92
2024/01/17 03:13:26;;;;;;;13.52;6.22;;;;;;;-0.46;100.00;98516.25;4895514;29;20088;-91
2024/01/17 03:15:52;;;;;;;10.05;6.40;;;;;;;-0.60;100.00;98512.97;4884537;29;20091;-91
2024/01/17 03:18:18;;;;;;;17.55;6.80;;;;;;;-0.72;100.00;98506.16;4880299;29;20052;-91
2024/01/17 03:20:45;;;;;;;12.60;6.20;;;;;;;-0.83;100.00;98501.78;4897709;29;20055;-91
2024/01/17 03:23:14;;;;;;;15.88;7.30;;;;;;;-0.92;100.00;98498.13;4887897;29;20489;-92
2024/01/17 03:25:40;;;;;;;13.38;7.13;;;;;;;-1.00;100.00;98494.38;4893816;29;20048;-92
2024/01/17 03:28:09;;;;;;;10.48;6.55;;;;;;;-1.04;100.00;98490.38;4883993;29;20033;-91
2024/01/17 03:30:37;;;;;;;12.32;6.88;;;;;;;-0.98;100.00;98488.22;4893801;29;20040;-92
2024/01/17 03:33:04;;;;;;;15.55;7.03;;;;;;;-0.86;100.00;98483.88;4896446;29;20037;-92
2024/01/17 03:35:33;;;;;;;11.73;6.75;;;;;;;-0.85;100.00;98473.38;4887226;29;20044;-91
2024/01/17 03:38:01;;;;;;;15.98;7.70;;;;;;;-0.80;100.00;98475.63;4871799;29;20040;-92
2024/01/17 03:40:27;;;;;;;19.60;7.65;;;;;;;-0.77;100.00;98475.38;4906648;29;20070;-92
2024/01/17 03:42:55;;;;;;;13.95;7.35;;;;;;;-0.78;100.00;98473.72;4891621;29;20033;-93
2024/01/17 03:45:24;;;;;;;17.58;8.15;;;;;;;-0.86;100.00;98474.31;4912437;29;20039;-92
2024/01/17 03:47:50;;;;;;;17.58;7.97;;;;;;;-0.95;100.00;98464.66;4903407;29;20048;-89
2024/01/17 03:50:16;;;;;;;11.73;7.03;;;;;;;-1.03;100.00;98462.66;4900006;29;20040;-91
2024/01/17 03:52:42;;;;;;;13.40;6.70;;;;;;;-1.05;100.00;98472.34;4895410;29;20032;-91
2024/01/17 03:55:11;;;;;;;11.80;6.30;;;;;;;-1.05;100.00;98472.34;4896492;29;20502;-92
2024/01/17 03:57:38;;;;;;;8.00;5.35;;;;;;;-1.04;100.00;98477.41;4901958;29;20047;-89
2024/01/17 04:00:06;;;;;;;9.82;5.25;;;;;;;-0.98;100.00;98473.50;4883572;29;20469;-89
2024/01/17 04:02:34;;;;;;;11.63;5.38;;;;;;;-0.96;100.00;98470.78;4908258;29;20040;-92
2024/01/17 04:05:04;;;;;;;8.43;4.72;;;;;;;-0.92;100.00;98469.59;4902638;29;20122;-92
2024/01/17 04:07:34;;;;;;;11.40;4.95;;;;;;;-0.86;100.00;98470.91;4900447;29;20042;-92
2024/01/17 04:10:08;;;;;;;9.23;4.55;;;;;;;-0.82;100.00;98473.13;4882619;29;20055;-92
2024/01/17 04:12:40;;;;;;;9.07;3.85;;;;;;;-0.82;100.00;98467.94;4901965;29;20051;-92
2024/01/17 04:15:11;;;;;;;8.30;4.00;;;;;;;-0.84;100.00;98472.44;4879655;29;20485;-92
2024/01/17 04:17:38;;;;;;;9.27;3.90;;;;;;;-0.81;100.00;98472.19;4896895;29;20071;-92
2024/01/17 04:20:08;;;;;;;7.40;3.53;;;;;;;-0.78;100.00;98471.13;4886830;29;20068;-93
2024/01/17 04:22:34;;;;;;;8.52;2.95;;;;;;;-0.81;100.00;98461.00;4888768;29;20059;-93
2024/01/17 04:25:01;;;;;;;4.80;3.45;;;;;;;-0.79;100.00;98464.28;4870481;29;20043;-93
2024/01/17 04:27:32;;;;;;;6.03;3.22;;;;;;;-0.78;100.00;98451.19;4886956;29;20052;-92
2024/01/17 04:30:05;;;;;;;5.72;2.88;;;;;;;-0.71;100.00;98461.91;4911218;29;20048;-92
2024/01/17 04:32:40;;;;;;;4.85;2.30;;;;;;;-0.73;100.00;98458.59;4900352;29;20386;-91
2024/01/17 04:35:11;;;;;;;6.53;2.55;;;;;;;-0.76;100.00;98466.63;4887656;29;20036;-91
2024/01/17 04:37:47;;;;;;;7.57;3.20;;;;;;;-0.80;100.00;98455.69;4906346;29;20143;-92
2024/01/17 04:40:16;;;;;;;7.90;3.50;;;;;;;-0.76;100.00;98456.25;4910213;29;20037;-93
2024/01/17 04:42:48;;;;;;;6.10;3.58;;;;;;;-0.78;100.00;98452.97;4904797;29;20090;-91
2024/01/17 04:45:17;;;;;;;5.18;2.90;;;;;;;-0.81;100.00;98446.25;4901818;29;20040;-92
2024/01/17 04:47:50;;;;;;;7.70;3.22;;;;;;;-0.84;100.00;98446.50;4885558;29;20035;-90
2024/01/17 04:50:18;;;;;;;5.05;2.58;;;;;;;-0.90;100.00;98444.38;4884569;29;20040;-92
2024/01/17 04:52:46;;;;;;;6.20;3.15;;;;;;;-0.95;100.00;98436.97;4897049;29;20042;-90
2024/01/17 04:55:15;;;;;;;2.92;2.30;;;;;;;-0.98;100.00;98428.59;4886444;29;20032;-90
2024/01/17 04:57:41;;;;;;;6.30;3.35;;;;;;;-0.96;100.00;98435.31;4902408;29;20083;-92
2024/01/17 05:00:14;;;;;;;5.63;3.15;;;;;;;-0.90;100.00;98428.81;4902894;29;20052;-92
2024/01/17 05:02:44;;;;;;;4.72;3.05;;;;;;;-0.97;100.00;98433.66;4898606;29;20040;-89
2024/01/17 05:05:10;;;;;;;4.03;2.75;;;;;;;-1.00;100.00;98428.72;4903338;29;20045;-89
2024/01/17 05:07:39;;;;;;;5.85;2.55;;;;;;;-0.98;100.00;98421.63;4899711;29;20493;-92
2024/01/17 05:10:06;;;;;;;2.70;1.98;;;;;;;-0.95;100.00;98426.59;4896107;29;20044;-92
2024/01/17 05:12:35;;;;;;;4.93;1.85;;;;;;;-0.94;100.00;98433.41;4885793;29;20047;-92
2024/01/17 05:15:07;;;;;;;7.38;4.10;;;;;;;-0.89;100.00;98423.50;4901860;29;20040;-93
2024/01/17 05:17:36;;;;;;;5.32;2.88;;;;;;;-0.89;100.00;98425.25;4875985;29;20071;-91
2024/01/17 05:20:05;;;;;;;6.30;3.67;;;;;;;-0.93;100.00;98414.34;4900532;29;20477;-92
2024/01/17 05:22:40;;;;;;;4.45;2.55;;;;;;;-0.91;100.00;98424.59;4886344;29;20067;-91
2024/01/17 05:25:08;;;;;;;6.43;4.15;;;;;;;-0.91;100.00;98419.41;4883090;29;20041;-92
2024/01/17 05:27:34;;;;;;;5.57;3.65;;;;;;;-0.92;100.00;98405.59;4895499;29;20056;-92
2024/01/17 05:30:10;;;;;;;4.47;3.50;;;;;;;-0.86;100.00;98406.88;4871226;29;20103;-93
2024/01/17 05:32:46;;;;;;;5.40;3.25;;;;;;;-0.89;100.00;98405.34;4908958;29;20493;-92
2024/01/17 05:35:20;;;;;;;5.25;3.40;;;;;;;-0.85;100.00;98407.69;4893235;29;20036;-92
2024/01/17 05:38:02;;;;;;;6.93;3.47;;;;;;;-0.92;100.00;98410.78;4889955;29;20429;-92
2024/01/17 05:40:39;;;;;;;7.68;3.38;;;;;;;-0.97;100.00;98407.72;4884973;29;20130;-92
2024/01/17 05:43:05;;;;;;;7.32;3.80;;;;;;;-1.01;100.00;98412.34;4878980;29;20040;-93
2024/01/17 05:45:31;;;;;;;6.70;3.35;;;;;;;-1.06;100.00;98406.69;4898131;29;20540;-92
2024/01/17 05:48:01;;;;;;;6.47;4.03;;;;;;;-1.07;100.00;98401.63;4894055;29;20040;-92
2024/01/17 05:50:31;;;;;;;8.27;3.95;;;;;;;-1.06;100.00;98406.69;4885890;29;20048;-93
2024/01/17 05:53:04;;;;;;;6.78;4.00;;;;;;;-1.04;100.00;98396.19;4885763;29;20036;-92
2024/01/17 05:55:36;;;;;;;5.68;3.72;;;;;;;-1.08;100.00;98392.19;4872983;29;20033;-92
2024/01/17 05:58:05;;;;;;;5.15;3.50;;;;;;;-1.09;100.00;98400.91;4872949;29;20032;-90
2024/01/17 06:00:31;;;;;;;5.85;3.92;;;;;;;-1.18;100.00;98387.72;4916800;29;20052;-90
2024/01/17 06:03:07;;;;;;;5.78;3.40;;;;;;;-1.09;100.00;98393.13;4867910;29;20103;-93
2024/01/17 06:05:45;;;;;;;6.70;3.65;;;;;;;-1.15;100.00;98395.25;4901953;29;20039;-93
2024/01/17 06:08:14;;;;;;;6.72;3.42;;;;;;;-1.18;100.00;98398.09;4900006;29;20035;-92
2024/01/17 06:10:43;;;;;;;6.45;3.38;;;;;;;-1.20;100.00;98401.75;4873480;29;20040;-92
2024/01/17 06:13:10;;;;;;;5.65;3.88;;;;;;;-1.23;100.00;98397.63;4896993;29;20412;-93
2024/01/17 06:15:36;;;;;;;10.02;5.65;;;;;;;-1.25;100.00;98402.09;4900206;29;20127;-92
2024/01/17 06:18:03;;;;;;;6.13;3.45;;;;;;;-1.26;100.00;98400.47;4886831;29;20046;-92
2024/01/17 06:20:30;;;;;;;5.65;3.38;;;;;;;-1.29;100.00;98392.94;4893088;29;20040;-93
2024/01/17 06:22:56;;;;;;;5.80;4.18;;;;;;;-1.32;100.00;98395.75;4877528;29;20184;-89
2024/01/17 06:25:22;;;;;;;5.25;3.45;;;;;;;-1.37;100.00;98391.75;4879928;29;20036;-89
2024/01/17 06:27:48;;;;;;;5.60;3.22;;;;;;;-1.34;100.00;98395.03;4888092;29;20043;-92
2024/01/17 06:30:17;;;;;;;3.88;3.00;;;;;;;-1.37;100.00;98403.91;4884567;29;20052;-92
2024/01/17 06:32:43;;;;;;;5.88;3.20;;;;;;;-1.39;100.00;98388.47;4880960;29;20058;-90
2024/01/17 06:35:10;;;;;;;5.45;3.63;;;;;;;-1.40;100.00;98391.97;4881706;29;20035;-89
2024/01/17 06:37:36;;;;;;;5.45;3.22;;;;;;;-1.43;100.00;98396.56;4871785;29;20118;-93
2024/01/17 06:40:03;;;;;;;7.97;3.10;;;;;;;-1.44;100.00;98395.75;4884753;29;20064;-90
2024/01/17 06:42:29;;;;;;;6.97;3.70;;;;;;;-1.46;100.00;98396.81;4892468;29;20542;-90
2024/01/17 06:44:55;;;;;;;9.48;4.68;;;;;;;-1.47;100.00;98403.78;4883519;29;20134;-90
2024/01/17 06:47:21;;;;;;;10.10;4.07;;;;;;;-1.46;100.00;98395.03;4896563;29;20036;-90
2024/01/17 06:49:47;;;;;;;6.47;3.47;;;;;;;-1.46;100.00;98395.03;4876396;29;20048;-93
2024/01/17 06:52:13;;;;;;;8.02;4.35;;;;;;;-1.45;100.00;98396.69;4909429;29;20040;-92
2024/01/17 06:54:39;;;;;;;6.53;3.30;;;;;;;-1.43;100.00;98400.00;4894454;29;20041;-89
2024/01/17 06:57:07;;;;;;;7.10;4.10;;;;;;;-1.41;100.00;98400.72;4909251;29;20052;-90
2024/01/17 06:59:33;;;;;;;4.47;3.28;;;;;;;-1.38;100.00;98394.44;4892365;29;20051;-93
2024/01/17 07:01:59;;;;;;;11.23;4.40;;;;;;;-1.37;100.00;98396.94;4898959;29;20111;-92
2024/01/17 07:04:25;;;;;;;6.93;3.60;;;;;;;-1.37;100.00;98402.09;4898897;29;20036;-92
2024/01/17 07:06:51;;;;;;;7.28;4.20;;;;;;;-1.38;100.00;98403.06;4900566;29;20036;-92
2024/01/17 07:09:17;;;;;;;8.73;4.20;;;;;;;-1.38;100.00;98394.44;4919608;29;20044;-90
2024/01/17 07:11:43;;;;;;;13.68;4.80;;;;;;;-1.32;100.00;98395.75;4883583;29;20040;-89
2024/01/17 07:14:09;;;;;;;12.13;4.38;;;;;;;-1.32;100.00;98398.34;4898404;29;20032;-89
2024/01/17 07:16:35;;;;;;;8.57;4.82;;;;;;;-1.30;100.00;98401.63;4894415;29;20055;-90
2024/01/17 07:19:03;;;;;;;11.25;4.10;;;;;;;-1.31;100.00;98403.41;4868233;29;20130;-89
2024/01/17 07:21:29;;;;;;;5.70;3.88;;;;;;;-1.27;100.00;98401.41;4905765;29;20382;-89
2024/01/17 07:23:55;;;;;;;6.95;3.85;;;;;;;-1.26;100.00;98403.06;4869357;29;20036;-90
2024/01/17 07:26:21;;;;;;;5.35;4.10;;;;;;;-1.23;100.00;98408.00;4912163;29;20044;-89
2024/01/17 07:28:48;;;;;;;6.05;3.85;;;;;;;-1.26;100.00;98405.66;4887453;29;20040;-93
2024/01/17 07:31:14;;;;;;;8.32;4.15;;;;;;;-1.25;100.00;98408.13;4900660;29;20041;-92
2024/01/17 07:33:40;;;;;;;4.10;3.17;;;;;;;-1.29;100.00;98401.50;4884974;29;20366;-89
2024/01/17 07:36:06;;;;;;;9.30;4.50;;;;;;;-1.23;100.00;98412.34;4878392;29;20036;-88
2024/01/17 07:38:32;;;;;;;7.43;3.70;;;;;;;-1.23;100.00;98412.34;4891873;29;20051;-92
2024/01/17 07:40:58;;;;;;;4.65;3.50;;;;;;;-1.30;100.00;98393.84;4897808;29;20040;-92
2024/01/17 07:43:24;;;;;;;7.90;4.22;;;;;;;-1.25;100.00;98402.94;4878768;29;20040;-94
2024/01/17 07:45:50;;;;;;;6.60;3.78;;;;;;;-1.25;100.00;98402.94;4904121;29;20115;-93
2024/01/17 07:48:17;;;;;;;13.43;4.15;;;;;;;-1.23;100.00;98394.22;4896202;29;20120;-91
2024/01/17 07:50:43;;;;;;;7.85;4.20;;;;;;;-1.22;100.00;98398.44;4885159;29;20039;-92
2024/01/17 07:53:11;;;;;;;7.88;4.10;;;;;;;-1.22;100.00;98398.44;4885580;29;20082;-94
2024/01/17 07:55:38;;;;;;;8.88;4.22;;;;;;;-1.25;100.00;98394.34;4894911;29;20469;-93
2024/01/17 07:58:07;;;;;;;6.57;3.47;;;;;;;-1.27;100.00;98391.03;4896594;29;20047;-94
2024/01/17 08:00:34;;;;;;;7.35;4.15;;;;;;;-1.30;100.00;98396.44;4877451;29;20060;-93
2024/01/17 08:03:00;;;;;;;6.20;3.97;;;;;;;-1.33;100.00;98394.94;4851749;29;20045;-90
2024/01/17 08:05:26;;;;;;;8.63;4.30;;;;;;;-1.35;100.00;98393.41;4864641;29;20136;-89
2024/01/17 08:07:52;;;;;;;9.07;3.63;;;;;;;-1.35;100.00;98393.41;4880433;29;20051;-90
2024/01/17 08:10:18;;;;;;;8.27;3.83;;;;;;;-1.34;100.00;98392.47;4876739;29;20073;-89
2024/01/17 08:12:44;;;;;;;8.43;3.95;;;;;;;-1.37;100.00;98391.75;4898054;29;20468;-93
2024/01/17 08:15:10;;;;;;;7.28;4.50;;;;;;;-1.42;100.00;98399.03;4876521;29;20058;-94
2024/01/17 08:17:37;;;;;;;6.78;3.92;;;;;;;-1.46;100.00;98405.41;4890130;29;20394;-90
2024/01/17 08:20:04;;;;;;;7.70;4.40;;;;;;;-1.50;100.00;98414.38;4880160;29;20040;-89
2024/01/17 08:22:30;;;;;;;12.43;4.90;;;;;;;-1.62;100.00;98406.59;4883422;29;20093;-93
2024/01/17 08:24:56;;;;;;;10.27;4.75;;;;;;;-1.69;100.00;98404.59;4865578;29;20041;-93
2024/01/17 08:27:25;;;;;;;8.30;4.53;;;;;;;-1.72;100.00;98415.19;4896118;29;20048;-94
2024/01/17 08:29:51;;;;;;;8.32;4.85;;;;;;;-1.74;100.00;98407.53;4884089;29;20037;-93
2024/01/17 08:32:17;;;;;;;7.10;4.25;;;;;;;-1.77;100.00;98402.56;4866234;29;20297;-93
2024/01/17 08:34:44;;;;;;;5.15;3.92;;;;;;;-1.79;100.00;98405.28;4905039;29;20028;-93
2024/01/17 08:37:10;;;;;;;13.10;7.10;;;;;;;-1.80;100.00;98410.59;4887535;29;20037;-90
2024/01/17 08:39:36;;;;;;;20.20;12.27;;;;;;;-1.83;100.00;98409.03;4868339;29;20052;-93
2024/01/17 08:42:03;;;;;;;25.88;16.60;;;;;;;-1.83;100.00;98405.63;4865283;29;20040;-93
2024/01/17 08:44:29;;;;;;;22.58;12.82;;;;;;;-1.85;100.00;98413.50;4869712;29;20485;-93
2024/01/17 08:46:55;;;;;;;126.10;71.97;;;;;;;-1.86;100.00;98406.66;4862957;29;20485;-93
2024/01/17 08:49:21;;;;;;;22.90;11.52;;;;;;;-1.85;100.00;98407.50;4885500;29;20371;-93
2024/01/17 08:51:47;;;;;;;36.67;20.00;;;;;;;-1.87;100.00;98412.81;4855958;29;20095;-93
2024/01/17 08:54:13;;;;;;;22.05;12.82;;;;;;;-1.85;100.00;98410.94;4876200;29;20097;-92
2024/01/17 08:56:39;;;;;;;17.77;10.70;;;;;;;-1.82;100.00;98415.88;4852889;29;20086;-89
2024/01/17 08:59:06;;;;;;;9.75;6.32;;;;;;;-1.83;100.00;98416.00;4890658;29;20449;-94
2024/01/17 09:01:32;;;;;;;13.43;6.63;;;;;;;-1.87;100.00;98413.63;4901407;29;20490;-94
2024/01/17 09:03:58;;;;;;;19.10;11.60;;;;;;;-1.85;100.00;98418.69;4911602;29;20053;-93
2024/01/17 09:06:24;;;;;;;17.80;9.63;;;;;;;-1.84;100.00;98422.94;4900718;29;20048;-93
2024/01/17 09:08:50;;;;;;;14.60;8.93;;;;;;;-1.79;100.00;98418.22;4907069;29;20051;-94
2024/01/17 09:11:16;;;;;;;23.55;7.20;;;;;;;-1.78;100.00;98424.22;4909849;29;20501;-93
2024/01/17 09:13:43;;;;;;;19.85;8.73;;;;;;;-1.77;100.00;98433.66;4908336;29;20043;-94
2024/01/17 09:16:10;;;;;;;14.90;7.28;;;;;;;-1.79;100.00;98431.19;4901671;29;20047;-93
2024/01/17 09:18:38;;;;;;;17.40;7.97;;;;;;;-1.79;100.00;98433.78;4885355;29;20130;-93
2024/01/17 09:21:05;;;;;;;90.47;10.18;;;;;;;-1.81;100.00;98435.66;4900153;29;20091;-93
2024/01/17 09:23:31;;;;;;;41.20;7.45;;;;;;;-1.83;100.00;98434.94;4911922;29;20132;-93
2024/01/17 09:25:57;;;;;;;44.38;9.00;;;;;;;-1.83;100.00;98432.34;4907805;29;20122;-93
2024/01/17 09:28:23;;;;;;;25.23;7.75;;;;;;;-1.78;100.00;98435.41;4879859;29;20131;-93
2024/01/17 09:30:49;;;;;;;11.02;5.78;;;;;;;-1.76;100.00;98437.88;4893279;29;20028;-93
2024/01/17 09:33:15;;;;;;;13.02;6.55;;;;;;;-1.74;100.00;98438.59;4903464;29;20059;-93
2024/01/17 09:35:44;;;;;;;15.95;9.05;;;;;;;-1.70;100.00;98436.59;4885604;29;20051;-93
2024/01/17 09:38:12;;;;;;;22.08;10.45;;;;;;;-1.65;100.00;98437.91;4886345;29;21432;-92
2024/01/17 09:40:39;;;;;;;50.00;10.48;;;;;;;-1.56;100.00;98435.56;4875643;29;20400;-91
2024/01/17 09:43:06;;;;;;;31.67;10.63;;;;;;;-1.52;100.00;98439.56;4873202;29;20044;-92
2024/01/17 09:45:33;;;;;;;37.83;9.55;;;;;;;-1.47;100.00;98447.00;4898201;29;20126;-94
2024/01/17 09:48:02;;;;;;;15.50;8.45;;;;;;;-1.46;100.00;98443.44;4885177;29;20051;-92
2024/01/17 09:50:31;;;;;;;12.48;7.75;;;;;;;-1.41;100.00;98444.75;4876692;29;20036;-92
2024/01/17 09:52:57;;;;;;;10.25;6.60;;;;;;;-1.38;100.00;98448.88;4900177;29;20036;-91
2024/01/17 09:55:27;;;;;;;78.07;7.00;;;;;;;-1.40;100.00;98437.81;4885429;29;20094;-92
2024/01/17 09:57:58;;;;;;;82.20;22.67;;;;;;;-1.36;100.00;98459.97;4884590;29;20066;-90
2024/01/17 10:00:26;;;;;;;48.95;26.50;;;;;;;-1.37;100.00;98450.53;4880090;29;20454;-91
2024/01/17 10:02:54;;;;;;;35.67;17.48;;;;;;;-1.34;100.00;98447.72;4878203;29;20050;-91
2024/01/17 10:05:24;;;;;;;49.85;11.90;;;;;;;-1.27;100.00;98459.25;4868922;29;20029;-90
2024/01/17 10:07:52;;;;;;;50.50;11.98;;;;;;;-1.24;100.00;98460.78;4895169;29;20072;-93
2024/01/17 10:10:21;;;;;;;16.88;11.07;;;;;;;-1.25;100.00;98457.38;4889136;29;20040;-93
2024/01/17 10:12:50;;;;;;;42.17;25.23;;;;;;;-1.21;100.00;98462.31;4897728;29;20131;-87
2024/01/17 10:15:16;;;;;;;53.70;29.95;;;;;;;-1.25;100.00;98454.78;4887991;29;20046;-93
2024/01/17 10:17:42;;;;;;;27.60;17.73;;;;;;;-1.28;100.00;98465.38;4882672;29;20123;-91
2024/01/17 10:20:09;;;;;;;41.65;24.05;;;;;;;-1.22;100.00;98477.03;4895907;29;20044;-90
2024/01/17 10:22:35;;;;;;;79.95;37.90;;;;;;;-1.25;100.00;98472.94;4883399;29;20542;-91
2024/01/17 10:25:02;;;;;;;63.67;21.02;;;;;;;-1.22;100.00;98479.63;4877258;29;20042;-90
2024/01/17 10:27:34;;;;;;;82.75;15.85;;;;;;;-1.25;100.00;98478.13;4897032;29;20047;-93
2024/01/17 10:30:01;;;;;;;113.85;44.85;;;;;;;-1.29;100.00;98483.66;4896386;29;20131;-92
2024/01/17 10:32:28;;;;;;;64.35;26.90;;;;;;;-1.25;100.00;98491.09;4890482;29;20035;-90
2024/01/17 10:34:55;;;;;;;51.58;13.23;;;;;;;-1.19;100.00;98484.59;4886831;29;20115;-90
2024/01/17 10:37:22;;;;;;;71.03;27.20;;;;;;;-1.20;100.00;98487.31;4895419;29;20110;-90
2024/01/17 10:40:11;;;;;;;105.25;47.55;;;;;;;-1.05;100.00;98493.91;4883146;29;20088;-90
2024/01/17 10:42:40;;;;;;;64.15;38.88;;;;;;;-1.10;100.00;98482.25;4892296;29;20123;-90
2024/01/17 10:45:08;;;;;;;34.55;11.10;;;;;;;-1.06;100.00;98496.59;4888043;29;20047;-88
2024/01/17 10:47:42;;;;;;;34.72;11.05;;;;;;;-1.04;100.00;98489.53;4885486;29;20062;-93
2024/01/17 10:50:08;;;;;;;44.05;12.02;;;;;;;-1.10;100.00;98500.38;4881164;29;20049;-93
2024/01/17 10:52:39;;;;;;;33.10;15.80;;;;;;;-1.04;100.00;98497.31;4909645;29;20045;-90
2024/01/17 10:55:08;;;;;;;27.40;14.02;;;;;;;-1.04;100.00;98498.16;4887406;29;20128;-90
2024/01/17 10:57:40;;;;;;;25.48;10.90;;;;;;;-0.96;100.00;98492.38;4884111;29;20172;-89
2024/01/17 11:03:52;;;;;;;37.53;13.68;;;;;;;-1.01;100.00;98505.69;4901588;29;20048;-90
2024/01/17 11:06:19;;;;;;;63.70;34.90;;;;;;;-1.02;100.00;98505.81;4883687;29;20030;-90
2024/01/17 11:08:46;;;;;;;45.58;24.25;;;;;;;-0.96;100.00;98510.53;4923814;29;20038;-92
2024/01/17 11:11:15;;;;;;;39.88;22.67;;;;;;;-0.89;100.00;98511.69;4876834;29;20044;-92
2024/01/17 11:13:43;;;;;;;12.00;7.65;;;;;;;-0.83;100.00;98501.78;4880977;29;20042;-90
2024/01/17 11:16:13;;;;;;;19.30;13.52;;;;;;;-0.76;100.00;98502.94;4887559;29;20040;-90
2024/01/17 11:18:42;;;;;;;21.10;14.27;;;;;;;-0.68;100.00;98504.94;4886783;29;20469;-90
2024/01/17 11:21:08;;;;;;;19.95;10.40;;;;;;;-0.66;100.00;98490.09;4901921;29;20393;-89
2024/01/17 11:23:53;;;;;;;10.13;6.97;;;;;;;-0.53;100.00;98503.75;4868059;29;20040;-90
2024/01/17 11:26:33;;;;;;;11.93;6.65;;;;;;;-0.43;100.00;98506.44;4901920;29;20076;-90
2024/01/17 11:29:13;;;;;;;14.80;8.27;;;;;;;-0.34;100.00;98507.50;4883016;29;20036;-92
2024/01/17 11:32:07;;;;;;;15.30;9.63;;;;;;;-0.24;100.00;98509.34;4903624;29;20107;-93
2024/01/17 11:34:33;;;;;;;22.27;10.13;;;;;;;-0.22;100.00;98507.47;4890059;29;20131;-93
2024/01/17 11:36:59;;;;;;;26.80;12.27;;;;;;;-0.11;100.00;98509.19;4898683;29;20402;-93